CFG2360 VTBS-ZJHK
Flight info
| Callsign | CFG2360 |
|---|---|
| Flight time | 1h 41m |
| Altitude | 39000 |
| Route | SELKA1F SELKA A1 SANOT Y15 GUROK A202 VILAO/K0869F390 A202 ASSAD/K0870S1190 ASSAD9XA |
| Aircraft | A339/H-SDE1E2E3GHIJ1J4J7LM1OP2RVWXYZ/LB1D1 |
Departure
| Time | 2026-05-09 05:44 |
|---|---|
| Airport | Suvarnabhumi Airport (VTBS) |
Arrival
| Time | 2026-05-09 07:26 |
|---|---|
| Airport | Haikou Meilan International Airport (ZJHK) |
| Time | Latitude | Longitude | Altitude | Speed | Heading |
|---|---|---|---|---|---|
| 2026-05-09 05:07 | 13.68367 | 100.74641 | 23 ft | 0 kts | 194° |
| 2026-05-09 05:33 | 13.68368 | 100.74641 | 24 ft | 0 kts | 194° |
| 2026-05-09 05:33 | 13.68375 | 100.74644 | 24 ft | 2 kts | 194° |
| 2026-05-09 05:33 | 13.68389 | 100.74648 | 23 ft | 2 kts | 194° |
| 2026-05-09 05:34 | 13.68404 | 100.74651 | 23 ft | 2 kts | 197° |
| 2026-05-09 05:34 | 13.68418 | 100.74657 | 23 ft | 2 kts | 214° |
| 2026-05-09 05:34 | 13.68430 | 100.74667 | 23 ft | 2 kts | 227° |
| 2026-05-09 05:34 | 13.68439 | 100.74679 | 23 ft | 2 kts | 240° |
| 2026-05-09 05:35 | 13.68445 | 100.74693 | 23 ft | 2 kts | 253° |
| 2026-05-09 05:35 | 13.68448 | 100.74708 | 22 ft | 2 kts | 266° |
| 2026-05-09 05:35 | 13.68448 | 100.74723 | 22 ft | 2 kts | 280° |
| 2026-05-09 05:35 | 13.68446 | 100.74730 | 22 ft | 0 kts | 285° |
| 2026-05-09 05:36 | 13.68446 | 100.74732 | 22 ft | 0 kts | 285° |
| 2026-05-09 05:36 | 13.68446 | 100.74731 | 22 ft | 0 kts | 285° |
| 2026-05-09 05:37 | 13.68448 | 100.74725 | 22 ft | 2 kts | 285° |
| 2026-05-09 05:37 | 13.68455 | 100.74699 | 23 ft | 6 kts | 286° |
| 2026-05-09 05:38 | 13.68474 | 100.74657 | 23 ft | 5 kts | 321° |
| 2026-05-09 05:38 | 13.68505 | 100.74653 | 24 ft | 4 kts | 4° |
| 2026-05-09 05:38 | 13.68548 | 100.74642 | 25 ft | 10 kts | 333° |
| 2026-05-09 05:38 | 13.68578 | 100.74586 | 26 ft | 10 kts | 290° |
| 2026-05-09 05:39 | 13.68604 | 100.74499 | 26 ft | 14 kts | 284° |
| 2026-05-09 05:39 | 13.68634 | 100.74378 | 25 ft | 19 kts | 284° |
| 2026-05-09 05:39 | 13.68671 | 100.74236 | 23 ft | 21 kts | 285° |
| 2026-05-09 05:39 | 13.68693 | 100.74096 | 23 ft | 17 kts | 245° |
| 2026-05-09 05:40 | 13.68589 | 100.74040 | 24 ft | 17 kts | 195° |
| 2026-05-09 05:40 | 13.68468 | 100.74007 | 24 ft | 18 kts | 194° |
| 2026-05-09 05:40 | 13.68344 | 100.73975 | 24 ft | 18 kts | 194° |
| 2026-05-09 05:40 | 13.68218 | 100.73942 | 23 ft | 19 kts | 194° |
| 2026-05-09 05:41 | 13.68089 | 100.73910 | 23 ft | 18 kts | 194° |
| 2026-05-09 05:41 | 13.67961 | 100.73878 | 23 ft | 18 kts | 194° |
| 2026-05-09 05:41 | 13.67836 | 100.73842 | 23 ft | 18 kts | 196° |
| 2026-05-09 05:41 | 13.67707 | 100.73803 | 22 ft | 19 kts | 196° |
| 2026-05-09 05:42 | 13.67579 | 100.73774 | 22 ft | 18 kts | 193° |
| 2026-05-09 05:42 | 13.67454 | 100.73741 | 24 ft | 17 kts | 195° |
| 2026-05-09 05:42 | 13.67338 | 100.73709 | 25 ft | 17 kts | 194° |
| 2026-05-09 05:42 | 13.67220 | 100.73678 | 24 ft | 17 kts | 194° |
| 2026-05-09 05:43 | 13.67108 | 100.73631 | 22 ft | 17 kts | 236° |
| 2026-05-09 05:43 | 13.67129 | 100.73509 | 23 ft | 16 kts | 307° |
| 2026-05-09 05:43 | 13.67235 | 100.73494 | 25 ft | 20 kts | 15° |
| 2026-05-09 05:43 | 13.67560 | 100.73580 | 25 ft | 79 kts | 14° |
| 2026-05-09 05:44 | 13.68299 | 100.73772 | 25 ft | 135 kts | 14° |
| 2026-05-09 05:44 | 13.69360 | 100.74046 | 68 ft | 174 kts | 14° |
| 2026-05-09 05:44 | 13.70496 | 100.74342 | 761 ft | 161 kts | 15° |
| 2026-05-09 05:44 | 13.71557 | 100.74620 | 1322 ft | 159 kts | 15° |
| 2026-05-09 05:45 | 13.72619 | 100.74899 | 1815 ft | 157 kts | 16° |
| 2026-05-09 05:45 | 13.73725 | 100.75189 | 2047 ft | 169 kts | 16° |
| 2026-05-09 05:45 | 13.74902 | 100.75500 | 2301 ft | 179 kts | 16° |
| 2026-05-09 05:45 | 13.76158 | 100.75833 | 2551 ft | 192 kts | 16° |
| 2026-05-09 05:46 | 13.77508 | 100.76188 | 2800 ft | 206 kts | 16° |
| 2026-05-09 05:46 | 13.78960 | 100.76572 | 3045 ft | 220 kts | 16° |
| 2026-05-09 05:46 | 13.80500 | 100.76977 | 3311 ft | 235 kts | 16° |
| 2026-05-09 05:46 | 13.82151 | 100.77413 | 3588 ft | 251 kts | 17° |
| 2026-05-09 05:47 | 13.83746 | 100.78236 | 3872 ft | 265 kts | 44° |
| 2026-05-09 05:47 | 13.84793 | 100.79766 | 4414 ft | 268 kts | 70° |
| 2026-05-09 05:47 | 13.85083 | 100.81648 | 5073 ft | 268 kts | 91° |
| 2026-05-09 05:47 | 13.85045 | 100.83571 | 5741 ft | 270 kts | 91° |
| 2026-05-09 05:48 | 13.85011 | 100.85484 | 6402 ft | 273 kts | 91° |
| 2026-05-09 05:48 | 13.84985 | 100.87443 | 7065 ft | 274 kts | 91° |
| 2026-05-09 05:48 | 13.84964 | 100.89410 | 7714 ft | 276 kts | 91° |
| 2026-05-09 05:48 | 13.84946 | 100.91379 | 8339 ft | 279 kts | 90° |
| 2026-05-09 05:49 | 13.84929 | 100.93364 | 8919 ft | 281 kts | 90° |
| 2026-05-09 05:49 | 13.84914 | 100.95392 | 9517 ft | 283 kts | 89° |
| 2026-05-09 05:49 | 13.85146 | 100.97393 | 10095 ft | 287 kts | 76° |
| 2026-05-09 05:49 | 13.85863 | 100.99332 | 10470 ft | 299 kts | 64° |
| 2026-05-09 05:50 | 13.86880 | 101.01260 | 10734 ft | 315 kts | 62° |
| 2026-05-09 05:50 | 13.87981 | 101.03265 | 10993 ft | 330 kts | 62° |
| 2026-05-09 05:50 | 13.89128 | 101.05352 | 11338 ft | 342 kts | 62° |
| 2026-05-09 05:50 | 13.90308 | 101.07510 | 11920 ft | 345 kts | 62° |
| 2026-05-09 05:51 | 13.91473 | 101.09650 | 12536 ft | 348 kts | 62° |
| 2026-05-09 05:51 | 13.92659 | 101.11839 | 13120 ft | 351 kts | 62° |
| 2026-05-09 05:51 | 13.93858 | 101.14054 | 13699 ft | 355 kts | 62° |
| 2026-05-09 05:51 | 13.95053 | 101.16266 | 14281 ft | 358 kts | 62° |
| 2026-05-09 05:52 | 13.96260 | 101.18501 | 14844 ft | 361 kts | 62° |
| 2026-05-09 05:52 | 13.97496 | 101.20792 | 15421 ft | 364 kts | 62° |
| 2026-05-09 05:52 | 13.98715 | 101.23056 | 15956 ft | 368 kts | 62° |
| 2026-05-09 05:52 | 13.99962 | 101.25370 | 16499 ft | 371 kts | 62° |
| 2026-05-09 05:53 | 14.01215 | 101.27695 | 17045 ft | 374 kts | 62° |
| 2026-05-09 05:53 | 14.02480 | 101.30046 | 17567 ft | 377 kts | 62° |
| 2026-05-09 05:53 | 14.03754 | 101.32411 | 18068 ft | 381 kts | 62° |
| 2026-05-09 05:53 | 14.05091 | 101.34896 | 18580 ft | 385 kts | 62° |
| 2026-05-09 05:54 | 14.06493 | 101.37502 | 19118 ft | 389 kts | 62° |
| 2026-05-09 05:54 | 14.07885 | 101.40091 | 19642 ft | 392 kts | 62° |
| 2026-05-09 05:54 | 14.09199 | 101.42535 | 20106 ft | 396 kts | 62° |
| 2026-05-09 05:54 | 14.10538 | 101.45029 | 20560 ft | 399 kts | 62° |
| 2026-05-09 05:55 | 14.11882 | 101.47532 | 21004 ft | 403 kts | 62° |
| 2026-05-09 05:55 | 14.13253 | 101.50082 | 21455 ft | 406 kts | 62° |
| 2026-05-09 05:55 | 14.14617 | 101.52625 | 21887 ft | 409 kts | 62° |
| 2026-05-09 05:55 | 14.15999 | 101.55200 | 22309 ft | 412 kts | 62° |
| 2026-05-09 05:56 | 14.17371 | 101.57758 | 22726 ft | 414 kts | 62° |
| 2026-05-09 05:56 | 14.18778 | 101.60379 | 23155 ft | 417 kts | 62° |
| 2026-05-09 05:56 | 14.20167 | 101.62969 | 23574 ft | 419 kts | 62° |
| 2026-05-09 05:56 | 14.21586 | 101.65617 | 23988 ft | 421 kts | 62° |
| 2026-05-09 05:57 | 14.23021 | 101.68295 | 24387 ft | 424 kts | 62° |
| 2026-05-09 05:57 | 14.24435 | 101.70935 | 24774 ft | 426 kts | 62° |
| 2026-05-09 05:57 | 14.25875 | 101.73628 | 25152 ft | 429 kts | 62° |
| 2026-05-09 05:57 | 14.27306 | 101.76304 | 25510 ft | 431 kts | 62° |
| 2026-05-09 05:58 | 14.28757 | 101.79017 | 25868 ft | 434 kts | 62° |
| 2026-05-09 05:58 | 14.30226 | 101.81762 | 26221 ft | 436 kts | 62° |
| 2026-05-09 05:58 | 14.31696 | 101.84512 | 26571 ft | 439 kts | 62° |
| 2026-05-09 05:58 | 14.33079 | 101.87275 | 26914 ft | 440 kts | 65° |
| 2026-05-09 05:59 | 14.34335 | 101.90158 | 27257 ft | 442 kts | 69° |
| 2026-05-09 05:59 | 14.35439 | 101.93119 | 27597 ft | 443 kts | 71° |
| 2026-05-09 05:59 | 14.36471 | 101.96127 | 27929 ft | 445 kts | 72° |
| 2026-05-09 05:59 | 14.37487 | 101.99119 | 28256 ft | 447 kts | 72° |
| 2026-05-09 06:00 | 14.38514 | 102.02148 | 28583 ft | 449 kts | 72° |
| 2026-05-09 06:00 | 14.39551 | 102.05209 | 28914 ft | 451 kts | 71° |
| 2026-05-09 06:00 | 14.40581 | 102.08243 | 29216 ft | 454 kts | 71° |
| 2026-05-09 06:00 | 14.41629 | 102.11326 | 29495 ft | 457 kts | 71° |
| 2026-05-09 06:01 | 14.42685 | 102.14433 | 29777 ft | 460 kts | 71° |
| 2026-05-09 06:01 | 14.43745 | 102.17550 | 30045 ft | 462 kts | 71° |
| 2026-05-09 06:01 | 14.44804 | 102.20668 | 30323 ft | 465 kts | 71° |
| 2026-05-09 06:01 | 14.45878 | 102.23833 | 30613 ft | 467 kts | 71° |
| 2026-05-09 06:02 | 14.46954 | 102.27000 | 30906 ft | 469 kts | 71° |
| 2026-05-09 06:02 | 14.48020 | 102.30145 | 31209 ft | 471 kts | 71° |
| 2026-05-09 06:02 | 14.49110 | 102.33356 | 31499 ft | 473 kts | 71° |
| 2026-05-09 06:02 | 14.50204 | 102.36578 | 31738 ft | 476 kts | 71° |
| 2026-05-09 06:03 | 14.51296 | 102.39801 | 31950 ft | 479 kts | 71° |
| 2026-05-09 06:03 | 14.52387 | 102.43021 | 32179 ft | 482 kts | 71° |
| 2026-05-09 06:03 | 14.53487 | 102.46275 | 32418 ft | 484 kts | 70° |
| 2026-05-09 06:03 | 14.54598 | 102.49564 | 32701 ft | 486 kts | 70° |
| 2026-05-09 06:04 | 14.55721 | 102.52879 | 33131 ft | 486 kts | 70° |
| 2026-05-09 06:04 | 14.56827 | 102.56147 | 33657 ft | 483 kts | 70° |
| 2026-05-09 06:04 | 14.57931 | 102.59415 | 34190 ft | 480 kts | 70° |
| 2026-05-09 06:04 | 14.59022 | 102.62647 | 34723 ft | 477 kts | 70° |
| 2026-05-09 06:05 | 14.60115 | 102.65884 | 35237 ft | 474 kts | 70° |
| 2026-05-09 06:05 | 14.61197 | 102.69090 | 35705 ft | 472 kts | 70° |
| 2026-05-09 06:05 | 14.62268 | 102.72269 | 36119 ft | 471 kts | 70° |
| 2026-05-09 06:05 | 14.63339 | 102.75448 | 36499 ft | 470 kts | 70° |
| 2026-05-09 06:06 | 14.64415 | 102.78645 | 36849 ft | 470 kts | 70° |
| 2026-05-09 06:06 | 14.65476 | 102.81797 | 37161 ft | 469 kts | 70° |
| 2026-05-09 06:06 | 14.66548 | 102.84983 | 37468 ft | 469 kts | 70° |
| 2026-05-09 06:06 | 14.67615 | 102.88157 | 37760 ft | 469 kts | 70° |
| 2026-05-09 06:07 | 14.68681 | 102.91332 | 38039 ft | 469 kts | 70° |
| 2026-05-09 06:07 | 14.69742 | 102.94495 | 38306 ft | 469 kts | 70° |
| 2026-05-09 06:07 | 14.70817 | 102.97701 | 38572 ft | 470 kts | 70° |
| 2026-05-09 06:07 | 14.71877 | 103.00861 | 38827 ft | 470 kts | 70° |
| 2026-05-09 06:08 | 14.74006 | 103.07213 | 38853 ft | 471 kts | 70° |
| 2026-05-09 06:08 | 14.76151 | 103.13622 | 38851 ft | 470 kts | 70° |
| 2026-05-09 06:09 | 14.78272 | 103.19965 | 38850 ft | 470 kts | 70° |
| 2026-05-09 06:09 | 14.80392 | 103.26314 | 38849 ft | 469 kts | 70° |
| 2026-05-09 06:10 | 14.82521 | 103.32695 | 38849 ft | 468 kts | 69° |
| 2026-05-09 06:10 | 14.84992 | 103.38868 | 38853 ft | 467 kts | 63° |
| 2026-05-09 06:11 | 14.88138 | 103.44729 | 38854 ft | 464 kts | 57° |
| 2026-05-09 06:11 | 14.91881 | 103.50135 | 38856 ft | 464 kts | 50° |
| 2026-05-09 06:12 | 14.96039 | 103.55205 | 38858 ft | 463 kts | 49° |
| 2026-05-09 06:12 | 15.00229 | 103.60252 | 38862 ft | 464 kts | 49° |
| 2026-05-09 06:13 | 15.04434 | 103.65335 | 38866 ft | 464 kts | 49° |
| 2026-05-09 06:13 | 15.08635 | 103.70418 | 38866 ft | 462 kts | 48° |
| 2026-05-09 06:14 | 15.13161 | 103.75137 | 38865 ft | 461 kts | 40° |
| 2026-05-09 06:14 | 15.18277 | 103.79152 | 38862 ft | 461 kts | 33° |
| 2026-05-09 06:15 | 15.23887 | 103.82385 | 38860 ft | 462 kts | 25° |
| 2026-05-09 06:15 | 15.29797 | 103.85029 | 38862 ft | 462 kts | 23° |
| 2026-05-09 06:16 | 15.35737 | 103.87620 | 38859 ft | 462 kts | 23° |
| 2026-05-09 06:16 | 15.41675 | 103.90221 | 38855 ft | 462 kts | 23° |
| 2026-05-09 06:17 | 15.47599 | 103.92820 | 38851 ft | 461 kts | 23° |
| 2026-05-09 06:17 | 15.53500 | 103.95412 | 38848 ft | 461 kts | 23° |
| 2026-05-09 06:18 | 15.59422 | 103.98016 | 38842 ft | 462 kts | 23° |
| 2026-05-09 06:18 | 15.65350 | 104.00626 | 38841 ft | 463 kts | 23° |
| 2026-05-09 06:19 | 15.71287 | 104.03303 | 38834 ft | 463 kts | 28° |
| 2026-05-09 06:19 | 15.76487 | 104.07189 | 38845 ft | 464 kts | 39° |
| 2026-05-09 06:20 | 15.81419 | 104.11507 | 38842 ft | 464 kts | 39° |
| 2026-05-09 06:20 | 15.86387 | 104.15836 | 38843 ft | 463 kts | 39° |
| 2026-05-09 06:21 | 15.91330 | 104.20117 | 38844 ft | 463 kts | 39° |
| 2026-05-09 06:21 | 15.96288 | 104.24404 | 38847 ft | 464 kts | 39° |
| 2026-05-09 06:22 | 16.01231 | 104.28680 | 38849 ft | 465 kts | 39° |
| 2026-05-09 06:22 | 16.06220 | 104.32999 | 38850 ft | 465 kts | 39° |
| 2026-05-09 06:23 | 16.11209 | 104.37319 | 38852 ft | 464 kts | 39° |
| 2026-05-09 06:23 | 16.16152 | 104.41603 | 38854 ft | 464 kts | 39° |
| 2026-05-09 06:24 | 16.21139 | 104.45926 | 38860 ft | 465 kts | 39° |
| 2026-05-09 06:24 | 16.26097 | 104.50225 | 38862 ft | 465 kts | 39° |
| 2026-05-09 06:25 | 16.31076 | 104.54548 | 38865 ft | 466 kts | 39° |
| 2026-05-09 06:25 | 16.36060 | 104.58879 | 38872 ft | 466 kts | 39° |
| 2026-05-09 06:26 | 16.41027 | 104.63197 | 38879 ft | 467 kts | 39° |
| 2026-05-09 06:26 | 16.46036 | 104.67559 | 38882 ft | 468 kts | 39° |
| 2026-05-09 06:27 | 16.51022 | 104.71943 | 38887 ft | 470 kts | 41° |
| 2026-05-09 06:27 | 16.55594 | 104.76811 | 38890 ft | 472 kts | 48° |
| 2026-05-09 06:28 | 16.59637 | 104.82214 | 38889 ft | 473 kts | 54° |
| 2026-05-09 06:28 | 16.63211 | 104.87932 | 38887 ft | 473 kts | 56° |
| 2026-05-09 06:29 | 16.66750 | 104.93712 | 38885 ft | 474 kts | 56° |
| 2026-05-09 06:29 | 16.70306 | 104.99502 | 38881 ft | 474 kts | 56° |
| 2026-05-09 06:30 | 16.73866 | 105.05292 | 38877 ft | 475 kts | 56° |
| 2026-05-09 06:30 | 16.77440 | 105.11105 | 38871 ft | 475 kts | 56° |
| 2026-05-09 06:31 | 16.80979 | 105.16869 | 38874 ft | 475 kts | 56° |
| 2026-05-09 06:31 | 16.84566 | 105.22715 | 38882 ft | 476 kts | 56° |
| 2026-05-09 06:32 | 16.88110 | 105.28497 | 38887 ft | 475 kts | 56° |
| 2026-05-09 06:33 | 16.93442 | 105.37206 | 38882 ft | 475 kts | 56° |
| 2026-05-09 06:33 | 16.97001 | 105.43035 | 38886 ft | 476 kts | 56° |
| 2026-05-09 06:34 | 17.02329 | 105.51767 | 38895 ft | 475 kts | 56° |
| 2026-05-09 06:34 | 17.05873 | 105.57582 | 38902 ft | 474 kts | 56° |
| 2026-05-09 06:35 | 17.09400 | 105.63375 | 38906 ft | 474 kts | 56° |
| 2026-05-09 06:35 | 17.12969 | 105.69238 | 38906 ft | 474 kts | 56° |
| 2026-05-09 06:36 | 17.16504 | 105.75053 | 38912 ft | 474 kts | 56° |
| 2026-05-09 06:36 | 17.20033 | 105.80862 | 38911 ft | 474 kts | 56° |
| 2026-05-09 06:37 | 17.23560 | 105.86674 | 38906 ft | 474 kts | 56° |
| 2026-05-09 06:37 | 17.27069 | 105.92461 | 38908 ft | 474 kts | 56° |
| 2026-05-09 06:38 | 17.30611 | 105.98308 | 38917 ft | 474 kts | 56° |
| 2026-05-09 06:38 | 17.34131 | 106.04127 | 38939 ft | 474 kts | 56° |
| 2026-05-09 06:39 | 17.37656 | 106.09940 | 38956 ft | 474 kts | 56° |
| 2026-05-09 06:39 | 17.41207 | 106.15689 | 38966 ft | 474 kts | 56° |
| 2026-05-09 06:40 | 17.44800 | 106.21506 | 38968 ft | 474 kts | 56° |
| 2026-05-09 06:40 | 17.48362 | 106.27290 | 38956 ft | 474 kts | 56° |
| 2026-05-09 06:41 | 17.51927 | 106.33084 | 38937 ft | 473 kts | 56° |
| 2026-05-09 06:41 | 17.55489 | 106.38881 | 38924 ft | 473 kts | 56° |
| 2026-05-09 06:42 | 17.59023 | 106.44637 | 38915 ft | 473 kts | 56° |
| 2026-05-09 06:42 | 17.62582 | 106.50440 | 38907 ft | 474 kts | 56° |
| 2026-05-09 06:43 | 17.66160 | 106.56281 | 38903 ft | 474 kts | 56° |
| 2026-05-09 06:43 | 17.69713 | 106.62087 | 38908 ft | 474 kts | 56° |
| 2026-05-09 06:44 | 17.73262 | 106.67906 | 38907 ft | 474 kts | 56° |
| 2026-05-09 06:44 | 17.76815 | 106.73739 | 38909 ft | 474 kts | 56° |
| 2026-05-09 06:45 | 17.80350 | 106.79550 | 38909 ft | 474 kts | 56° |
| 2026-05-09 06:45 | 17.83879 | 106.85353 | 38904 ft | 474 kts | 56° |
| 2026-05-09 06:46 | 17.87432 | 106.91206 | 38898 ft | 475 kts | 56° |
| 2026-05-09 06:46 | 17.90981 | 106.97029 | 38896 ft | 474 kts | 56° |
| 2026-05-09 06:47 | 17.94533 | 107.02837 | 38895 ft | 474 kts | 56° |
| 2026-05-09 06:47 | 17.98073 | 107.08635 | 38897 ft | 474 kts | 56° |
| 2026-05-09 06:48 | 18.01639 | 107.14485 | 38896 ft | 474 kts | 56° |
| 2026-05-09 06:48 | 18.05180 | 107.20300 | 38895 ft | 474 kts | 56° |
| 2026-05-09 06:49 | 18.08740 | 107.26152 | 38897 ft | 475 kts | 56° |
| 2026-05-09 06:49 | 18.12295 | 107.32004 | 38904 ft | 476 kts | 56° |
| 2026-05-09 06:50 | 18.15839 | 107.37845 | 38909 ft | 475 kts | 55° |
| 2026-05-09 06:50 | 18.19371 | 107.43676 | 38910 ft | 475 kts | 55° |
| 2026-05-09 06:51 | 18.22916 | 107.49532 | 38910 ft | 475 kts | 55° |
| 2026-05-09 06:51 | 18.26452 | 107.55376 | 38906 ft | 474 kts | 55° |
| 2026-05-09 06:52 | 18.30001 | 107.61254 | 38907 ft | 475 kts | 55° |
| 2026-05-09 06:52 | 18.33593 | 107.67088 | 38905 ft | 474 kts | 53° |
| 2026-05-09 06:53 | 18.37611 | 107.72553 | 38907 ft | 473 kts | 48° |
| 2026-05-09 06:53 | 18.41795 | 107.77850 | 38907 ft | 473 kts | 48° |
| 2026-05-09 06:54 | 18.46020 | 107.83197 | 38905 ft | 473 kts | 48° |
| 2026-05-09 06:54 | 18.50193 | 107.88496 | 38910 ft | 473 kts | 48° |
| 2026-05-09 06:55 | 18.54381 | 107.93823 | 38914 ft | 473 kts | 48° |
| 2026-05-09 06:55 | 18.58579 | 107.99168 | 38819 ft | 469 kts | 48° |
| 2026-05-09 06:56 | 18.60631 | 108.01784 | 38399 ft | 466 kts | 48° |
| 2026-05-09 06:56 | 18.62698 | 108.04419 | 37819 ft | 465 kts | 48° |
| 2026-05-09 06:56 | 18.64744 | 108.07026 | 37241 ft | 463 kts | 48° |
| 2026-05-09 06:56 | 18.66805 | 108.09653 | 36602 ft | 463 kts | 48° |
| 2026-05-09 06:57 | 18.68836 | 108.12242 | 35911 ft | 464 kts | 49° |
| 2026-05-09 06:57 | 18.70907 | 108.14886 | 35187 ft | 465 kts | 49° |
| 2026-05-09 06:57 | 18.72955 | 108.17500 | 34475 ft | 466 kts | 49° |
| 2026-05-09 06:57 | 18.75013 | 108.20130 | 33738 ft | 468 kts | 49° |
| 2026-05-09 06:58 | 18.77090 | 108.22784 | 32966 ft | 469 kts | 49° |
| 2026-05-09 06:58 | 18.79155 | 108.25427 | 32213 ft | 472 kts | 50° |
| 2026-05-09 06:58 | 18.81243 | 108.28097 | 31472 ft | 474 kts | 50° |
| 2026-05-09 06:58 | 18.83342 | 108.30784 | 30700 ft | 477 kts | 50° |
| 2026-05-09 06:59 | 18.85451 | 108.33484 | 29910 ft | 480 kts | 50° |
| 2026-05-09 06:59 | 18.87582 | 108.36214 | 29292 ft | 479 kts | 50° |
| 2026-05-09 06:59 | 18.89699 | 108.38929 | 28839 ft | 474 kts | 51° |
| 2026-05-09 06:59 | 18.91775 | 108.41593 | 28373 ft | 470 kts | 51° |
| 2026-05-09 07:00 | 18.93841 | 108.44246 | 27907 ft | 467 kts | 51° |
| 2026-05-09 07:00 | 18.95871 | 108.46854 | 27451 ft | 463 kts | 51° |
| 2026-05-09 07:00 | 18.97912 | 108.49478 | 26981 ft | 460 kts | 51° |
| 2026-05-09 07:00 | 18.99940 | 108.52084 | 26528 ft | 456 kts | 51° |
| 2026-05-09 07:01 | 19.01930 | 108.54642 | 26088 ft | 453 kts | 51° |
| 2026-05-09 07:01 | 19.03929 | 108.57214 | 25623 ft | 450 kts | 51° |
| 2026-05-09 07:01 | 19.05917 | 108.59772 | 25148 ft | 447 kts | 50° |
| 2026-05-09 07:01 | 19.07855 | 108.62266 | 24700 ft | 443 kts | 50° |
| 2026-05-09 07:02 | 19.09810 | 108.64784 | 24246 ft | 440 kts | 50° |
| 2026-05-09 07:02 | 19.11759 | 108.67296 | 23773 ft | 438 kts | 51° |
| 2026-05-09 07:02 | 19.13676 | 108.69765 | 23343 ft | 434 kts | 51° |
| 2026-05-09 07:02 | 19.15579 | 108.72219 | 22929 ft | 430 kts | 50° |
| 2026-05-09 07:03 | 19.17474 | 108.74663 | 22518 ft | 426 kts | 50° |
| 2026-05-09 07:03 | 19.19337 | 108.77065 | 22111 ft | 423 kts | 50° |
| 2026-05-09 07:03 | 19.21180 | 108.79442 | 21680 ft | 420 kts | 50° |
| 2026-05-09 07:03 | 19.23024 | 108.81820 | 21235 ft | 418 kts | 51° |
| 2026-05-09 07:04 | 19.24882 | 108.84219 | 20774 ft | 417 kts | 51° |
| 2026-05-09 07:04 | 19.26706 | 108.86575 | 20318 ft | 415 kts | 51° |
| 2026-05-09 07:04 | 19.28537 | 108.88942 | 19877 ft | 413 kts | 51° |
| 2026-05-09 07:04 | 19.30334 | 108.91267 | 19437 ft | 411 kts | 51° |
| 2026-05-09 07:05 | 19.32138 | 108.93601 | 18985 ft | 410 kts | 51° |
| 2026-05-09 07:05 | 19.33937 | 108.95930 | 18565 ft | 408 kts | 51° |
| 2026-05-09 07:05 | 19.35733 | 108.98254 | 18108 ft | 406 kts | 51° |
| 2026-05-09 07:05 | 19.37513 | 109.00558 | 17669 ft | 405 kts | 51° |
| 2026-05-09 07:06 | 19.39283 | 109.02851 | 17251 ft | 403 kts | 51° |
| 2026-05-09 07:06 | 19.41070 | 109.05168 | 16855 ft | 400 kts | 51° |
| 2026-05-09 07:06 | 19.42812 | 109.07429 | 16450 ft | 397 kts | 51° |
| 2026-05-09 07:06 | 19.44555 | 109.09692 | 16052 ft | 395 kts | 51° |
| 2026-05-09 07:07 | 19.46281 | 109.11934 | 15685 ft | 391 kts | 51° |
| 2026-05-09 07:07 | 19.47996 | 109.14160 | 15309 ft | 389 kts | 51° |
| 2026-05-09 07:07 | 19.49707 | 109.16383 | 14899 ft | 386 kts | 51° |
| 2026-05-09 07:07 | 19.51391 | 109.18569 | 14490 ft | 384 kts | 51° |
| 2026-05-09 07:08 | 19.53057 | 109.20742 | 14105 ft | 382 kts | 51° |
| 2026-05-09 07:08 | 19.54725 | 109.22932 | 13730 ft | 379 kts | 51° |
| 2026-05-09 07:08 | 19.56374 | 109.25101 | 13341 ft | 377 kts | 51° |
| 2026-05-09 07:08 | 19.58002 | 109.27246 | 12971 ft | 374 kts | 51° |
| 2026-05-09 07:09 | 19.59639 | 109.29401 | 12584 ft | 371 kts | 51° |
| 2026-05-09 07:09 | 19.61253 | 109.31526 | 12243 ft | 367 kts | 51° |
| 2026-05-09 07:09 | 19.62837 | 109.33613 | 11997 ft | 366 kts | 51° |
| 2026-05-09 07:09 | 19.64432 | 109.35714 | 11762 ft | 366 kts | 51° |
| 2026-05-09 07:10 | 19.66031 | 109.37820 | 11529 ft | 365 kts | 51° |
| 2026-05-09 07:10 | 19.67619 | 109.39916 | 11371 ft | 363 kts | 51° |
| 2026-05-09 07:10 | 19.69197 | 109.41997 | 11240 ft | 363 kts | 51° |
| 2026-05-09 07:10 | 19.70763 | 109.44063 | 11100 ft | 362 kts | 51° |
| 2026-05-09 07:11 | 19.72343 | 109.46149 | 10953 ft | 357 kts | 51° |
| 2026-05-09 07:11 | 19.73880 | 109.48181 | 10808 ft | 347 kts | 51° |
| 2026-05-09 07:11 | 19.75292 | 109.50194 | 10685 ft | 337 kts | 60° |
| 2026-05-09 07:11 | 19.76279 | 109.52411 | 10561 ft | 328 kts | 66° |
| 2026-05-09 07:12 | 19.77136 | 109.54620 | 10445 ft | 319 kts | 68° |
| 2026-05-09 07:12 | 19.77959 | 109.56789 | 10321 ft | 311 kts | 68° |
| 2026-05-09 07:12 | 19.78758 | 109.58897 | 10210 ft | 304 kts | 68° |
| 2026-05-09 07:12 | 19.79527 | 109.60935 | 10073 ft | 297 kts | 68° |
| 2026-05-09 07:13 | 19.80287 | 109.62965 | 9845 ft | 294 kts | 68° |
| 2026-05-09 07:13 | 19.81044 | 109.64988 | 9583 ft | 293 kts | 68° |
| 2026-05-09 07:13 | 19.81782 | 109.66969 | 9322 ft | 292 kts | 68° |
| 2026-05-09 07:13 | 19.82532 | 109.68980 | 9067 ft | 291 kts | 68° |
| 2026-05-09 07:14 | 19.83279 | 109.70966 | 8807 ft | 289 kts | 68° |
| 2026-05-09 07:14 | 19.84022 | 109.72933 | 8552 ft | 288 kts | 68° |
| 2026-05-09 07:14 | 19.84771 | 109.74908 | 8292 ft | 287 kts | 68° |
| 2026-05-09 07:14 | 19.85515 | 109.76871 | 8043 ft | 285 kts | 68° |
| 2026-05-09 07:15 | 19.86253 | 109.78816 | 7800 ft | 283 kts | 68° |
| 2026-05-09 07:15 | 19.86992 | 109.80763 | 7549 ft | 282 kts | 68° |
| 2026-05-09 07:15 | 19.87723 | 109.82681 | 7298 ft | 281 kts | 68° |
| 2026-05-09 07:15 | 19.88456 | 109.84604 | 7064 ft | 279 kts | 68° |
| 2026-05-09 07:16 | 19.89175 | 109.86489 | 6808 ft | 278 kts | 68° |
| 2026-05-09 07:16 | 19.89903 | 109.88395 | 6554 ft | 277 kts | 68° |
| 2026-05-09 07:16 | 19.90633 | 109.90299 | 6304 ft | 276 kts | 69° |
| 2026-05-09 07:16 | 19.91222 | 109.92207 | 6067 ft | 275 kts | 76° |
| 2026-05-09 07:17 | 19.91675 | 109.94198 | 5817 ft | 274 kts | 77° |
| 2026-05-09 07:17 | 19.92085 | 109.96143 | 5586 ft | 272 kts | 78° |
| 2026-05-09 07:17 | 19.92491 | 109.98094 | 5364 ft | 270 kts | 78° |
| 2026-05-09 07:17 | 19.92867 | 110.00063 | 5136 ft | 268 kts | 81° |
| 2026-05-09 07:18 | 19.93158 | 110.02006 | 4991 ft | 264 kts | 84° |
| 2026-05-09 07:18 | 19.93306 | 110.03954 | 4987 ft | 266 kts | 87° |
| 2026-05-09 07:18 | 19.93375 | 110.05911 | 4982 ft | 266 kts | 88° |
| 2026-05-09 07:18 | 19.93409 | 110.07871 | 4982 ft | 266 kts | 89° |
| 2026-05-09 07:19 | 19.93425 | 110.09829 | 4982 ft | 265 kts | 89° |
| 2026-05-09 07:19 | 19.93431 | 110.11789 | 4979 ft | 263 kts | 89° |
| 2026-05-09 07:19 | 19.93432 | 110.13683 | 4976 ft | 252 kts | 90° |
| 2026-05-09 07:19 | 19.93431 | 110.15512 | 4959 ft | 243 kts | 90° |
| 2026-05-09 07:20 | 19.93430 | 110.17300 | 4764 ft | 240 kts | 90° |
| 2026-05-09 07:20 | 19.93429 | 110.19048 | 4413 ft | 235 kts | 90° |
| 2026-05-09 07:20 | 19.93429 | 110.20750 | 4123 ft | 226 kts | 90° |
| 2026-05-09 07:20 | 19.93429 | 110.22385 | 3849 ft | 217 kts | 90° |
| 2026-05-09 07:21 | 19.93430 | 110.23941 | 3592 ft | 209 kts | 90° |
| 2026-05-09 07:21 | 19.93432 | 110.25469 | 3384 ft | 204 kts | 90° |
| 2026-05-09 07:21 | 19.93434 | 110.26967 | 3133 ft | 203 kts | 90° |
| 2026-05-09 07:21 | 19.93436 | 110.28463 | 2873 ft | 202 kts | 90° |
| 2026-05-09 07:22 | 19.93438 | 110.29913 | 2593 ft | 194 kts | 89° |
| 2026-05-09 07:22 | 19.93441 | 110.31313 | 2343 ft | 186 kts | 89° |
| 2026-05-09 07:22 | 19.93444 | 110.32682 | 2084 ft | 181 kts | 89° |
| 2026-05-09 07:22 | 19.93447 | 110.33984 | 1848 ft | 173 kts | 89° |
| 2026-05-09 07:23 | 19.93450 | 110.35218 | 1623 ft | 164 kts | 90° |
| 2026-05-09 07:23 | 19.93452 | 110.36401 | 1429 ft | 155 kts | 89° |
| 2026-05-09 07:23 | 19.93454 | 110.37524 | 1237 ft | 147 kts | 88° |
| 2026-05-09 07:23 | 19.93458 | 110.38574 | 1060 ft | 138 kts | 90° |
| 2026-05-09 07:24 | 19.93460 | 110.39595 | 903 ft | 138 kts | 88° |
| 2026-05-09 07:24 | 19.93464 | 110.40614 | 738 ft | 138 kts | 90° |
| 2026-05-09 07:24 | 19.93465 | 110.41641 | 566 ft | 138 kts | 90° |
| 2026-05-09 07:24 | 19.93469 | 110.42655 | 388 ft | 138 kts | 91° |
| 2026-05-09 07:25 | 19.93467 | 110.43666 | 197 ft | 137 kts | 87° |
| 2026-05-09 07:25 | 19.93476 | 110.44681 | 86 ft | 131 kts | 90° |
| 2026-05-09 07:25 | 19.93481 | 110.45553 | 79 ft | 101 kts | 92° |
| 2026-05-09 07:25 | 19.93478 | 110.46147 | 82 ft | 59 kts | 90° |
| 2026-05-09 07:26 | 19.93501 | 110.46462 | 83 ft | 32 kts | 71° |
| 2026-05-09 07:26 | 19.93583 | 110.46645 | 83 ft | 22 kts | 60° |
| 2026-05-09 07:26 | 19.93652 | 110.46788 | 82 ft | 21 kts | 72° |
| 2026-05-09 07:26 | 19.93699 | 110.46864 | 82 ft | 9 kts | 9° |
| 2026-05-09 07:27 | 19.93765 | 110.46871 | 81 ft | 10 kts | 3° |
| 2026-05-09 07:27 | 19.93842 | 110.46872 | 80 ft | 12 kts | 359° |
| 2026-05-09 07:27 | 19.93936 | 110.46871 | 78 ft | 14 kts | 360° |
| 2026-05-09 07:27 | 19.94046 | 110.46871 | 77 ft | 16 kts | 360° |
| 2026-05-09 07:28 | 19.94165 | 110.46871 | 76 ft | 17 kts | 0° |
| 2026-05-09 07:28 | 19.94293 | 110.46871 | 73 ft | 19 kts | 0° |
| 2026-05-09 07:28 | 19.94434 | 110.46870 | 68 ft | 21 kts | 360° |
| 2026-05-09 07:28 | 19.94578 | 110.46870 | 62 ft | 21 kts | 359° |
| 2026-05-09 07:29 | 19.94716 | 110.46870 | 56 ft | 19 kts | 0° |
| 2026-05-09 07:29 | 19.94846 | 110.46870 | 53 ft | 16 kts | 360° |
| 2026-05-09 07:29 | 19.94954 | 110.46869 | 53 ft | 14 kts | 359° |
| 2026-05-09 07:29 | 19.95055 | 110.46868 | 56 ft | 13 kts | 360° |
| 2026-05-09 07:30 | 19.95138 | 110.46868 | 60 ft | 10 kts | 359° |
| 2026-05-09 07:30 | 19.95196 | 110.46851 | 62 ft | 7 kts | 317° |
| 2026-05-09 07:30 | 19.95206 | 110.46809 | 64 ft | 6 kts | 274° |
| 2026-05-09 07:30 | 19.95207 | 110.46755 | 64 ft | 8 kts | 270° |
| 2026-05-09 07:31 | 19.95207 | 110.46679 | 65 ft | 11 kts | 270° |
| 2026-05-09 07:31 | 19.95206 | 110.46583 | 66 ft | 13 kts | 269° |
| 2026-05-09 07:31 | 19.95205 | 110.46480 | 67 ft | 14 kts | 269° |
| 2026-05-09 07:31 | 19.95205 | 110.46372 | 67 ft | 14 kts | 269° |
| 2026-05-09 07:32 | 19.95205 | 110.46272 | 70 ft | 12 kts | 270° |
| 2026-05-09 07:32 | 19.95205 | 110.46191 | 73 ft | 9 kts | 269° |
| 2026-05-09 07:32 | 19.95204 | 110.46128 | 75 ft | 7 kts | 270° |
| 2026-05-09 07:32 | 19.95205 | 110.46075 | 77 ft | 6 kts | 270° |
| 2026-05-09 07:33 | 19.95205 | 110.46026 | 79 ft | 7 kts | 270° |
| 2026-05-09 07:33 | 19.95203 | 110.45874 | 80 ft | 14 kts | 269° |
| 2026-05-09 07:33 | 19.95203 | 110.45760 | 80 ft | 16 kts | 269° |
| 2026-05-09 07:34 | 19.95203 | 110.45644 | 79 ft | 14 kts | 270° |
| 2026-05-09 07:34 | 19.95195 | 110.45555 | 79 ft | 9 kts | 240° |
| 2026-05-09 07:34 | 19.95140 | 110.45533 | 79 ft | 8 kts | 184° |
| 2026-05-09 07:34 | 19.95083 | 110.45532 | 80 ft | 8 kts | 177° |
| 2026-05-09 07:35 | 19.95037 | 110.45553 | 80 ft | 7 kts | 140° |
| 2026-05-09 07:35 | 19.94998 | 110.45590 | 81 ft | 7 kts | 136° |
| 2026-05-09 07:35 | 19.94970 | 110.45634 | 82 ft | 6 kts | 104° |
| 2026-05-09 07:35 | 19.94953 | 110.45675 | 83 ft | 5 kts | 144° |
| 2026-05-09 07:36 | 19.94913 | 110.45681 | 83 ft | 5 kts | 179° |
| 2026-05-09 07:36 | 19.94880 | 110.45681 | 84 ft | 3 kts | 179° |
| 2026-05-09 07:36 | 19.94866 | 110.45681 | 85 ft | 0 kts | 179° |